createdAt,value
2023-08-01T00:01:25.000Z,3.1
2023-08-01T00:04:58.000Z,3
2023-08-01T00:08:30.000Z,2.8
2023-08-01T00:12:03.000Z,2.4
2023-08-01T00:15:36.000Z,2.1
2023-08-01T00:21:33.000Z,1.7
2023-08-01T00:25:05.000Z,1.5
2023-08-01T00:28:38.000Z,1.4
2023-08-01T00:32:11.000Z,1.3
2023-08-01T00:35:44.000Z,1.6
2023-08-01T00:39:16.000Z,1.5
2023-08-01T00:42:01.000Z,1.5
2023-08-01T00:45:34.000Z,1.4
2023-08-01T00:49:07.000Z,1.5
2023-08-01T00:52:39.000Z,1.7
2023-08-01T00:56:12.000Z,1.8
2023-08-01T00:59:45.000Z,1.4
2023-08-01T01:03:17.000Z,1.5
2023-08-01T01:06:50.000Z,1.4
2023-08-01T01:10:23.000Z,1.4
2023-08-01T01:13:55.000Z,1.2
2023-08-01T01:17:28.000Z,0.9
2023-08-01T01:20:19.000Z,1
2023-08-01T01:23:52.000Z,0.9
2023-08-01T01:27:25.000Z,1.1
2023-08-01T01:30:57.000Z,0.6
2023-08-01T01:34:30.000Z,0.9
2023-08-01T01:38:03.000Z,0.7
2023-08-01T01:41:35.000Z,1
2023-08-01T01:45:08.000Z,0.9
2023-08-01T01:48:41.000Z,1.2
2023-08-01T01:52:14.000Z,1.8
2023-08-01T01:55:46.000Z,1.6
2023-08-01T01:58:38.000Z,2
2023-08-01T02:02:10.000Z,1.6
2023-08-01T02:05:43.000Z,1.8
2023-08-01T02:09:16.000Z,1.6
2023-08-01T02:12:48.000Z,1.4
2023-08-01T02:16:21.000Z,1.6
2023-08-01T02:19:54.000Z,1.3
2023-08-01T02:23:26.000Z,1.4
2023-08-01T02:26:59.000Z,1.1
2023-08-01T02:30:32.000Z,1.1
2023-08-01T02:34:04.000Z,1.1
2023-08-01T02:36:55.000Z,1.1
2023-08-01T02:40:28.000Z,1.2
2023-08-01T02:44:01.000Z,1.3
2023-08-01T02:47:33.000Z,1.3
2023-08-01T02:51:06.000Z,1.4
2023-08-01T02:54:39.000Z,1.3
2023-08-01T02:58:11.000Z,1.4
2023-08-01T03:01:44.000Z,1.5
2023-08-01T03:05:17.000Z,1.6
2023-08-01T03:08:50.000Z,1.6
2023-08-01T03:12:29.000Z,1.5
2023-08-01T03:15:20.000Z,1.9
2023-08-01T03:18:53.000Z,2
2023-08-01T03:22:25.000Z,1.6
2023-08-01T03:25:58.000Z,2
2023-08-01T03:29:30.000Z,1.5
2023-08-01T03:33:03.000Z,1.4
2023-08-01T03:36:36.000Z,1.2
2023-08-01T03:40:08.000Z,1.2
2023-08-01T03:43:41.000Z,1.1
2023-08-01T03:47:14.000Z,1.4
2023-08-01T03:50:46.000Z,0.9
2023-08-01T03:53:37.000Z,1
2023-08-01T03:57:14.000Z,1
2023-08-01T04:00:47.000Z,0.9
2023-08-01T04:04:19.000Z,0.9
2023-08-01T04:07:52.000Z,0.9
2023-08-01T04:11:24.000Z,1
2023-08-01T04:14:57.000Z,1.2
2023-08-01T04:18:30.000Z,0.8
2023-08-01T04:22:02.000Z,0.8
2023-08-01T04:25:35.000Z,0.7
2023-08-01T04:29:08.000Z,1.1
2023-08-01T04:31:59.000Z,1.1
2023-08-01T04:35:31.000Z,0.9
2023-08-01T04:39:04.000Z,1.1
2023-08-01T04:42:37.000Z,1.2
2023-08-01T04:46:09.000Z,0.9
2023-08-01T04:49:42.000Z,0.8
2023-08-01T04:53:15.000Z,0.8
2023-08-01T04:56:48.000Z,0.8
2023-08-01T05:00:20.000Z,1
2023-08-01T05:03:53.000Z,0.8
2023-08-01T05:07:25.000Z,1
2023-08-01T05:10:17.000Z,0.9
2023-08-01T05:13:49.000Z,0.7
2023-08-01T05:17:22.000Z,0.8
2023-08-01T05:20:55.000Z,0.8
2023-08-01T05:24:28.000Z,0.7
2023-08-01T05:28:00.000Z,0.9
2023-08-01T05:31:33.000Z,0.6
2023-08-01T05:35:07.000Z,0.7
2023-08-01T05:38:40.000Z,0.7
2023-08-01T05:42:12.000Z,0.7
2023-08-01T05:45:45.000Z,0.9
2023-08-01T05:48:37.000Z,0.8
2023-08-01T05:52:10.000Z,0.8
2023-08-01T05:55:42.000Z,0.7
2023-08-01T05:59:15.000Z,0.6
2023-08-01T06:02:48.000Z,0.7
2023-08-01T06:06:20.000Z,0.8
2023-08-01T06:09:53.000Z,0.8
2023-08-01T06:13:26.000Z,0.6
2023-08-01T06:16:58.000Z,0.5
2023-08-01T06:20:31.000Z,0.6
2023-08-01T06:24:04.000Z,0.6
2023-08-01T06:26:55.000Z,0.7
2023-08-01T06:30:28.000Z,0.6
2023-08-01T06:34:00.000Z,0.4
2023-08-01T06:37:33.000Z,0.5
2023-08-01T06:41:06.000Z,0.5
2023-08-01T06:44:38.000Z,0.5
2023-08-01T06:48:11.000Z,0.3
2023-08-01T06:51:44.000Z,0.3
2023-08-01T06:55:16.000Z,0.2
2023-08-01T06:58:49.000Z,0.3
2023-08-01T07:02:21.000Z,0.5
2023-08-01T07:05:12.000Z,3.3
2023-08-01T07:08:45.000Z,4.8
2023-08-01T07:12:18.000Z,5.4
2023-08-01T07:15:51.000Z,6.8
2023-08-01T07:19:23.000Z,7.5
2023-08-01T07:22:56.000Z,8.5
2023-08-01T07:26:28.000Z,8.7
2023-08-01T07:30:01.000Z,9.1
2023-08-01T07:33:34.000Z,8.4
2023-08-01T07:37:07.000Z,8.6
2023-08-01T07:40:39.000Z,7.6
2023-08-01T07:43:30.000Z,6.9
2023-08-01T07:47:03.000Z,7.4
2023-08-01T07:50:36.000Z,7
2023-08-01T07:54:10.000Z,6.6
2023-08-01T07:57:43.000Z,6.2
2023-08-01T08:01:16.000Z,6.4
2023-08-01T08:04:49.000Z,6.5
2023-08-01T08:08:21.000Z,6.1
2023-08-01T08:11:54.000Z,5.8
2023-08-01T08:15:26.000Z,5.8
2023-08-01T08:18:59.000Z,5.5
2023-08-01T08:21:50.000Z,5.3
2023-08-01T08:25:23.000Z,5.8
2023-08-01T08:28:56.000Z,5.9
2023-08-01T08:32:28.000Z,5.9
2023-08-01T08:36:01.000Z,6
2023-08-01T08:39:34.000Z,5.8
2023-08-01T08:43:06.000Z,5.6
2023-08-01T08:46:39.000Z,6.4
2023-08-01T08:50:12.000Z,6.8
2023-08-01T08:53:44.000Z,7.3
2023-08-01T08:57:17.000Z,8
2023-08-01T09:00:08.000Z,8.9
2023-08-01T09:03:41.000Z,9
2023-08-01T09:07:14.000Z,8.8
2023-08-01T09:10:46.000Z,8.8
2023-08-01T09:14:19.000Z,8.4
2023-08-01T09:17:52.000Z,8.7
2023-08-01T09:21:25.000Z,8.6
2023-08-01T09:24:57.000Z,8.5
2023-08-01T09:28:30.000Z,8.7
2023-08-01T09:32:02.000Z,7.2
2023-08-01T09:35:35.000Z,7.6
2023-08-01T09:38:26.000Z,7.2
2023-08-01T09:41:59.000Z,6.3
2023-08-01T09:45:31.000Z,6
2023-08-01T09:49:04.000Z,5.9
2023-08-01T09:52:37.000Z,5.3
2023-08-01T09:56:09.000Z,5.5
2023-08-01T09:59:42.000Z,4.3
2023-08-01T10:03:15.000Z,4.3
2023-08-01T10:06:48.000Z,4.3
2023-08-01T10:10:21.000Z,3.9
2023-08-01T10:13:54.000Z,3.6
2023-08-01T10:16:44.000Z,3.5
2023-08-01T10:20:18.000Z,3.7
2023-08-01T10:23:53.000Z,3.2
2023-08-01T10:27:26.000Z,2.9
2023-08-01T10:30:58.000Z,2.8
2023-08-01T10:34:31.000Z,2.6
2023-08-01T10:38:04.000Z,2.7
2023-08-01T10:41:36.000Z,2.4
2023-08-01T10:45:09.000Z,2.5
2023-08-01T10:48:42.000Z,2.3
2023-08-01T10:52:14.000Z,2.6
2023-08-01T10:55:05.000Z,2.7
2023-08-01T10:58:39.000Z,2.7
2023-08-01T11:02:12.000Z,2.5
2023-08-01T11:05:45.000Z,2.4
2023-08-01T11:09:17.000Z,2.7
2023-08-01T11:12:50.000Z,2.4
2023-08-01T11:16:23.000Z,2.4
2023-08-01T11:19:56.000Z,2.7
2023-08-01T11:23:29.000Z,3.5
2023-08-01T11:27:01.000Z,2.1
2023-08-01T11:30:34.000Z,2.1
2023-08-01T11:33:25.000Z,2.3
2023-08-01T11:36:58.000Z,2.3
2023-08-01T11:40:31.000Z,2.1
2023-08-01T11:44:03.000Z,2
2023-08-01T11:47:36.000Z,2
2023-08-01T11:51:09.000Z,1.9
2023-08-01T11:54:42.000Z,2.1
2023-08-01T11:58:15.000Z,3
2023-08-01T12:01:47.000Z,3.3
2023-08-01T12:05:20.000Z,2.9
2023-08-01T12:08:53.000Z,2.4
2023-08-01T12:11:44.000Z,2.5
2023-08-01T12:15:17.000Z,2.7
2023-08-01T12:18:52.000Z,2.5
2023-08-01T12:22:26.000Z,2.2
2023-08-01T12:25:59.000Z,2.2
2023-08-01T12:29:32.000Z,2.3
2023-08-01T12:33:04.000Z,2.3
2023-08-01T12:36:37.000Z,2.3
2023-08-01T12:40:10.000Z,2.2
2023-08-01T12:43:43.000Z,2.3
2023-08-01T12:47:15.000Z,2.1
2023-08-01T12:50:07.000Z,2.1
2023-08-01T12:53:40.000Z,1.6
2023-08-01T12:57:12.000Z,1.9
2023-08-01T13:00:45.000Z,1.8
2023-08-01T13:04:18.000Z,2.1
2023-08-01T13:07:51.000Z,2.2
2023-08-01T13:11:24.000Z,1.8
2023-08-01T13:14:56.000Z,2.2
2023-08-01T13:18:42.000Z,1.9
2023-08-01T13:22:15.000Z,2.1
2023-08-01T13:25:48.000Z,2
2023-08-01T13:28:39.000Z,1.5
2023-08-01T13:32:12.000Z,1.5
2023-08-01T13:35:44.000Z,1.6
2023-08-01T13:39:17.000Z,1.6
2023-08-01T13:42:50.000Z,1.5
2023-08-01T13:46:23.000Z,1.4
2023-08-01T13:49:55.000Z,1.5
2023-08-01T13:53:31.000Z,1.3
2023-08-01T13:57:04.000Z,1.4
2023-08-01T14:00:37.000Z,1.4
2023-08-01T14:04:10.000Z,1.8
2023-08-01T14:07:01.000Z,1.7
2023-08-01T14:10:34.000Z,1.4
2023-08-01T14:14:06.000Z,1.6
2023-08-01T14:17:43.000Z,1.6
2023-08-01T14:21:15.000Z,1.4
2023-08-01T14:24:48.000Z,1.4
2023-08-01T14:28:21.000Z,1.7
2023-08-01T14:31:54.000Z,1.5
2023-08-01T14:35:26.000Z,1.6
2023-08-01T14:38:59.000Z,1.8
2023-08-01T14:42:49.000Z,1.9
2023-08-01T14:45:40.000Z,2.1
2023-08-01T14:49:12.000Z,2.1
2023-08-01T14:52:45.000Z,1.8
2023-08-01T14:56:32.000Z,1.4
2023-08-01T15:00:05.000Z,1.8
2023-08-01T15:03:38.000Z,1.5
2023-08-01T15:07:11.000Z,1.3
2023-08-01T15:10:44.000Z,1.2
2023-08-01T15:14:16.000Z,1.2
2023-08-01T15:17:49.000Z,1.1
2023-08-01T15:21:22.000Z,1.2
2023-08-01T15:24:13.000Z,0.9
2023-08-01T15:27:46.000Z,0.9
2023-08-01T15:31:19.000Z,1.1
2023-08-01T15:34:51.000Z,1
2023-08-01T15:38:24.000Z,1.2
2023-08-01T15:41:57.000Z,1.1
2023-08-01T15:45:30.000Z,1.2
2023-08-01T15:49:02.000Z,1.2
2023-08-01T15:52:35.000Z,1.5
2023-08-01T15:56:08.000Z,1.5
2023-08-01T15:59:41.000Z,1.4
2023-08-01T16:02:32.000Z,1.5
2023-08-01T16:06:05.000Z,1.4
2023-08-01T16:09:38.000Z,1.5
2023-08-01T16:13:10.000Z,1.5
2023-08-01T16:16:43.000Z,1.5
2023-08-01T16:20:16.000Z,1.4
2023-08-01T16:23:48.000Z,1.4
2023-08-01T16:27:21.000Z,1.3
2023-08-01T16:30:54.000Z,1.3
2023-08-01T16:34:27.000Z,1.2
2023-08-01T16:38:00.000Z,1.3
2023-08-01T16:40:51.000Z,1.4
2023-08-01T16:44:24.000Z,1.3
2023-08-01T16:47:56.000Z,1.2
2023-08-01T16:51:29.000Z,1.2
2023-08-01T16:55:02.000Z,1.5
2023-08-01T16:58:34.000Z,1.2
2023-08-01T17:02:07.000Z,1.2
2023-08-01T17:05:40.000Z,1.2
2023-08-01T17:09:13.000Z,1.2
2023-08-01T17:12:46.000Z,1.4
2023-08-01T17:16:18.000Z,1.2
2023-08-01T17:19:10.000Z,1
2023-08-01T17:22:42.000Z,1.1
2023-08-01T17:26:15.000Z,1.2
2023-08-01T17:29:48.000Z,1.3
2023-08-01T17:33:21.000Z,1.4
2023-08-01T17:36:54.000Z,1.3
2023-08-01T17:40:26.000Z,1.2
2023-08-01T17:43:59.000Z,1.2
2023-08-01T17:47:32.000Z,1.1
2023-08-01T17:51:05.000Z,1.2
2023-08-01T17:54:38.000Z,1.3
2023-08-01T17:57:29.000Z,1.3
2023-08-01T18:01:02.000Z,1.4
2023-08-01T18:04:34.000Z,1.2
2023-08-01T18:08:07.000Z,1.3
2023-08-01T18:11:40.000Z,1.3
2023-08-01T18:15:13.000Z,1.6
2023-08-01T18:18:45.000Z,1.2
2023-08-01T18:22:18.000Z,1.4
2023-08-01T18:25:51.000Z,1.6
2023-08-01T18:29:24.000Z,1.1
2023-08-01T18:32:56.000Z,1.3
2023-08-01T18:35:47.000Z,1.3
2023-08-01T18:39:20.000Z,1.5
2023-08-01T18:42:53.000Z,1.5
2023-08-01T18:46:25.000Z,1.5
2023-08-01T18:49:58.000Z,1.3
2023-08-01T18:53:31.000Z,1.5
2023-08-01T18:57:04.000Z,1.4
2023-08-01T19:00:36.000Z,1.3
2023-08-01T19:04:09.000Z,1.6
2023-08-01T19:07:42.000Z,1.4
2023-08-01T19:11:20.000Z,1.4
2023-08-01T19:14:11.000Z,1.6
2023-08-01T19:17:44.000Z,1.5
2023-08-01T19:21:16.000Z,1.7
2023-08-01T19:24:50.000Z,1.5
2023-08-01T19:28:22.000Z,1.6
2023-08-01T19:31:55.000Z,1.4
2023-08-01T19:35:28.000Z,1.5
2023-08-01T19:39:00.000Z,1.7
2023-08-01T19:42:33.000Z,1.4
2023-08-01T19:46:05.000Z,1.3
2023-08-01T19:49:38.000Z,1.6
2023-08-01T19:52:30.000Z,1.6
2023-08-01T19:56:02.000Z,1.3
2023-08-01T19:59:35.000Z,1.4
2023-08-01T20:03:08.000Z,1.7
2023-08-01T20:06:41.000Z,1.4
2023-08-01T20:10:14.000Z,1.8
2023-08-01T20:13:46.000Z,1.7
2023-08-01T20:17:19.000Z,1.6
2023-08-01T20:20:51.000Z,1.7
2023-08-01T20:24:24.000Z,1.7
2023-08-01T20:27:57.000Z,1.5
2023-08-01T20:30:48.000Z,1.5
2023-08-01T20:34:21.000Z,1.6
2023-08-01T20:37:54.000Z,1.8
2023-08-01T20:41:26.000Z,1.5
2023-08-01T20:44:59.000Z,1.5
2023-08-01T20:48:32.000Z,2.1
2023-08-01T20:52:04.000Z,1.6
2023-08-01T20:55:37.000Z,1.8
2023-08-01T20:59:10.000Z,1.9
2023-08-01T21:02:43.000Z,1.9
2023-08-01T21:06:15.000Z,1.5
2023-08-01T21:09:07.000Z,2
2023-08-01T21:12:40.000Z,2
2023-08-01T21:16:12.000Z,1.7
2023-08-01T21:19:45.000Z,1.8
2023-08-01T21:23:18.000Z,2.1
2023-08-01T21:26:50.000Z,1.9
2023-08-01T21:30:23.000Z,1.8
2023-08-01T21:33:55.000Z,1.8
2023-08-01T21:37:28.000Z,2.2
2023-08-01T21:41:01.000Z,1.9
2023-08-01T21:44:33.000Z,2.1
2023-08-01T21:47:24.000Z,2.1
2023-08-01T21:50:57.000Z,2
2023-08-01T21:54:30.000Z,2
2023-08-01T21:58:02.000Z,1.9
2023-08-01T22:01:35.000Z,1.8
2023-08-01T22:05:08.000Z,2.1
2023-08-01T22:08:41.000Z,1.9
2023-08-01T22:12:13.000Z,1.9
2023-08-01T22:15:46.000Z,1.9
2023-08-01T22:19:19.000Z,2.1
2023-08-01T22:22:51.000Z,2
2023-08-01T22:25:42.000Z,2.2
2023-08-01T22:29:15.000Z,1.9
2023-08-01T22:32:47.000Z,1.6
2023-08-01T22:36:20.000Z,1.8
2023-08-01T22:39:53.000Z,2.2
2023-08-01T22:43:26.000Z,2.1
2023-08-01T22:46:58.000Z,2.1
2023-08-01T22:50:31.000Z,1.9
2023-08-01T22:54:04.000Z,2
2023-08-01T22:57:36.000Z,2.1
2023-08-01T23:01:09.000Z,2.1
2023-08-01T23:04:00.000Z,2
2023-08-01T23:07:33.000Z,1.9
2023-08-01T23:11:05.000Z,2.1
2023-08-01T23:14:38.000Z,2
2023-08-01T23:18:11.000Z,2.2
2023-08-01T23:21:43.000Z,2
2023-08-01T23:25:16.000Z,2.1
2023-08-01T23:28:49.000Z,2.1
2023-08-01T23:32:22.000Z,1.9
2023-08-01T23:35:54.000Z,1.9
2023-08-01T23:39:27.000Z,2.1
2023-08-01T23:42:18.000Z,2.4
2023-08-01T23:45:51.000Z,2
2023-08-01T23:49:23.000Z,2.2
2023-08-01T23:52:56.000Z,2.4
2023-08-01T23:56:29.000Z,1.7
